Time;durP1;ratioP1;P1;durP2;ratioP2;P2;SDS_P1;SDS_P2;PMS_P1;PMS_P2;Temp;Humidity;BMP_temperature;BMP_pressure;BME280_temperature;BME280_humidity;BME280_pressure;Samples;Min_cycle;Max_cycle;Signal;HPM_P1;HPM_P2
2023/06/14 00:00:34;;;;;;;12.20;6.90;;;;;;;6.69;71.84;97084.14;105106;1264;97371;-69
2023/06/14 00:03:22;;;;;;;9.40;6.60;;;;;;;6.68;71.88;97082.07;105313;1260;103774;-70
2023/06/14 00:05:49;;;;;;;10.40;7.80;;;;;;;6.66;72.03;97083.00;105146;1256;102079;-70
2023/06/14 00:08:16;;;;;;;14.60;7.70;;;;;;;6.62;72.10;97084.09;104991;1260;98277;-71
2023/06/14 00:10:42;;;;;;;10.00;7.90;;;;;;;6.62;72.30;97078.23;105208;1264;97833;-71
2023/06/14 00:13:10;;;;;;;14.60;8.50;;;;;;;6.62;72.16;97078.95;105236;1266;96776;-70
2023/06/14 00:15:37;;;;;;;13.70;8.00;;;;;;;6.60;72.15;97077.02;105180;1257;96567;-71
2023/06/14 00:18:05;;;;;;;10.30;7.20;;;;;;;6.60;72.18;97075.83;105208;1256;96567;-70
2023/06/14 00:20:33;;;;;;;11.10;7.40;;;;;;;6.61;72.30;97077.48;105192;1264;97061;-69
2023/06/14 00:23:01;;;;;;;10.20;6.50;;;;;;;6.62;72.31;97076.59;105055;1264;96629;-71
2023/06/14 00:25:29;;;;;;;10.80;7.40;;;;;;;6.62;72.29;97076.10;105387;1260;97842;-68
2023/06/14 00:27:58;;;;;;;11.60;7.20;;;;;;;6.61;72.42;97079.23;105150;1267;98226;-71
2023/06/14 00:30:30;;;;;;;9.20;7.10;;;;;;;6.59;72.45;97076.10;105242;1255;101847;-70
2023/06/14 00:32:57;;;;;;;9.90;7.30;;;;;;;6.57;72.47;97075.10;105145;1256;97677;-69
2023/06/14 00:35:24;;;;;;;8.10;7.10;;;;;;;6.52;72.48;97071.59;105271;1255;96677;-69
2023/06/14 00:37:50;;;;;;;11.80;7.10;;;;;;;6.50;72.72;97066.34;105197;1256;96990;-71
2023/06/14 00:40:17;;;;;;;8.30;7.10;;;;;;;6.49;72.75;97066.58;105141;1264;97449;-70
2023/06/14 00:42:44;;;;;;;11.90;7.30;;;;;;;6.50;72.86;97063.83;105203;1264;97277;-69
2023/06/14 00:45:11;;;;;;;9.50;7.30;;;;;;;6.46;72.95;97066.23;105277;1254;96540;-70
2023/06/14 00:47:39;;;;;;;9.20;6.50;;;;;;;6.43;73.11;97064.33;105000;1260;97067;-68
2023/06/14 00:50:10;;;;;;;9.10;7.00;;;;;;;6.45;73.23;97060.92;105098;1260;102725;-69
2023/06/14 00:52:37;;;;;;;8.40;6.70;;;;;;;6.46;73.19;97061.60;105189;1256;101784;-70
2023/06/14 00:55:04;;;;;;;10.20;7.00;;;;;;;6.46;73.12;97062.67;104914;1267;97067;-70
2023/06/14 00:57:31;;;;;;;9.10;7.10;;;;;;;6.44;73.18;97060.80;105118;1252;96812;-70
2023/06/14 00:59:58;;;;;;;11.20;7.50;;;;;;;6.40;73.10;97066.91;104766;1257;98202;-69
2023/06/14 01:02:25;;;;;;;8.80;6.60;;;;;;;6.39;73.17;97064.39;105150;1260;96532;-71
2023/06/14 01:04:54;;;;;;;8.70;6.70;;;;;;;6.38;73.22;97061.38;105010;1270;96670;-68
2023/06/14 01:07:44;;;;;;;10.10;7.10;;;;;;;6.37;73.22;97058.89;105277;1264;97932;-71
2023/06/14 01:10:33;;;;;;;9.80;7.30;;;;;;;6.36;73.29;97062.60;105050;1267;96526;-70
2023/06/14 01:13:09;;;;;;;9.40;7.40;;;;;;;6.34;73.24;97062.73;105125;1265;98402;-70
2023/06/14 01:15:37;;;;;;;10.70;8.50;;;;;;;6.31;73.47;97060.35;105193;1264;102981;-70
2023/06/14 01:18:05;;;;;;;8.50;7.40;;;;;;;6.30;73.61;97055.34;105298;1258;101867;-70
2023/06/14 01:20:36;;;;;;;15.40;7.70;;;;;;;6.29;73.79;97055.59;105285;1260;102046;-70
2023/06/14 01:23:03;;;;;;;10.60;8.30;;;;;;;6.25;73.77;97059.02;105095;1257;96737;-69
2023/06/14 01:25:29;;;;;;;11.10;8.30;;;;;;;6.20;73.79;97057.29;105076;1251;96972;-71
2023/06/14 01:28:10;;;;;;;10.10;7.80;;;;;;;6.20;73.96;97058.39;105239;1267;97445;-71
2023/06/14 01:30:38;;;;;;;10.60;7.80;;;;;;;6.20;74.07;97059.23;105001;1263;101838;-69
2023/06/14 01:33:05;;;;;;;12.30;8.70;;;;;;;6.20;74.12;97056.91;105250;1260;99400;-69
2023/06/14 01:35:32;;;;;;;11.20;8.80;;;;;;;6.20;74.10;97058.85;105118;1257;96545;-71
2023/06/14 01:38:00;;;;;;;12.70;8.00;;;;;;;6.21;74.20;97061.96;105088;1257;96545;-71
2023/06/14 01:40:28;;;;;;;8.30;7.50;;;;;;;6.24;74.43;97062.33;105268;1251;96532;-71
2023/06/14 01:42:55;;;;;;;9.50;8.10;;;;;;;6.26;74.50;97063.83;105239;1255;102034;-72
2023/06/14 01:45:23;;;;;;;11.90;8.80;;;;;;;6.25;74.54;97059.36;105282;1258;97155;-70
2023/06/14 01:47:50;;;;;;;11.20;8.10;;;;;;;6.25;74.71;97055.45;105159;1255;96545;-71
2023/06/14 01:50:20;;;;;;;11.80;8.10;;;;;;;6.28;74.78;97052.34;105125;1257;97225;-71
2023/06/14 01:52:47;;;;;;;10.60;8.40;;;;;;;6.31;74.79;97053.70;105233;1256;102834;-72
2023/06/14 01:55:15;;;;;;;11.60;9.20;;;;;;;6.31;75.02;97052.17;105195;1252;96819;-70
2023/06/14 01:57:41;;;;;;;11.10;7.90;;;;;;;6.29;75.21;97049.65;105117;1265;97893;-71
2023/06/14 02:00:12;;;;;;;11.30;8.60;;;;;;;6.32;75.42;97043.58;105150;1257;96535;-70
2023/06/14 02:02:39;;;;;;;9.70;8.00;;;;;;;6.34;75.55;97046.44;105012;1258;96968;-71
2023/06/14 02:05:06;;;;;;;12.30;9.40;;;;;;;6.35;75.50;97049.01;105212;1257;97484;-71
2023/06/14 02:07:33;;;;;;;10.60;8.50;;;;;;;6.38;75.62;97052.55;105285;1251;96610;-72
2023/06/14 02:10:00;;;;;;;12.80;8.50;;;;;;;6.41;75.47;97051.16;105144;1265;96574;-71
2023/06/14 02:12:26;;;;;;;12.50;9.50;;;;;;;6.44;75.56;97045.58;104902;1261;97451;-71
2023/06/14 02:14:53;;;;;;;11.80;9.40;;;;;;;6.47;75.65;97044.25;105306;1264;96527;-71
2023/06/14 02:17:20;;;;;;;12.00;9.40;;;;;;;6.50;75.95;97051.83;105220;1257;102250;-70
2023/06/14 02:19:47;;;;;;;9.60;8.40;;;;;;;6.54;75.94;97051.84;105204;1261;97469;-71
2023/06/14 02:22:14;;;;;;;11.70;8.40;;;;;;;6.60;76.11;97052.59;105106;1256;96626;-71
2023/06/14 02:24:42;;;;;;;11.10;8.60;;;;;;;6.64;76.14;97053.23;105271;1257;97139;-70
2023/06/14 02:27:10;;;;;;;15.90;9.80;;;;;;;6.68;76.15;97051.48;105394;1258;97842;-71
2023/06/14 02:29:37;;;;;;;14.50;10.90;;;;;;;6.73;76.16;97053.94;105443;1256;96554;-71
2023/06/14 02:32:07;;;;;;;14.20;9.90;;;;;;;6.76;76.15;97051.74;105199;1255;97869;-71
2023/06/14 02:34:34;;;;;;;12.70;9.30;;;;;;;6.81;76.17;97055.14;105115;1254;96635;-71
2023/06/14 02:37:03;;;;;;;11.90;9.60;;;;;;;6.85;76.05;97060.61;105122;1257;97015;-71
2023/06/14 02:39:30;;;;;;;13.30;10.00;;;;;;;6.88;76.15;97062.02;104865;1260;102405;-70
2023/06/14 02:41:56;;;;;;;13.10;10.30;;;;;;;6.90;76.26;97060.88;105156;1255;97428;-71
2023/06/14 02:44:26;;;;;;;14.40;10.80;;;;;;;6.88;76.18;97057.81;105100;1257;96552;-73
2023/06/14 02:46:55;;;;;;;18.80;10.90;;;;;;;6.91;76.30;97059.73;105052;1255;97851;-70
2023/06/14 02:49:23;;;;;;;14.60;9.70;;;;;;;6.94;76.40;97054.77;105126;1254;96987;-70
2023/06/14 02:51:49;;;;;;;15.30;10.00;;;;;;;6.98;76.56;97052.48;105278;1264;102818;-70
2023/06/14 02:54:16;;;;;;;14.30;10.60;;;;;;;7.02;76.55;97051.83;105143;1264;97672;-71
2023/06/14 02:56:43;;;;;;;16.00;10.10;;;;;;;7.03;76.53;97050.56;105237;1258;97553;-70
2023/06/14 02:59:10;;;;;;;15.30;10.40;;;;;;;7.05;76.56;97054.13;105389;1256;96559;-71
2023/06/14 03:01:40;;;;;;;14.30;10.40;;;;;;;7.08;76.45;97053.53;105211;1257;97896;-70
2023/06/14 03:04:08;;;;;;;12.00;9.70;;;;;;;7.11;76.63;97051.88;105323;1260;101891;-70
2023/06/14 03:06:36;;;;;;;15.00;10.70;;;;;;;7.14;76.65;97051.95;105133;1261;99100;-71
2023/06/14 03:09:04;;;;;;;15.80;10.40;;;;;;;7.17;76.72;97050.52;105097;1270;96654;-70
2023/06/14 03:11:32;;;;;;;15.10;10.20;;;;;;;7.20;76.77;97044.47;105246;1252;97218;-71
2023/06/14 03:13:59;;;;;;;17.70;9.60;;;;;;;7.20;76.65;97047.23;105443;1251;102598;-72
2023/06/14 03:16:28;;;;;;;14.60;10.40;;;;;;;7.19;76.66;97045.63;105366;1257;96545;-69
2023/06/14 03:18:55;;;;;;;14.20;10.70;;;;;;;7.19;76.65;97041.13;105229;1251;100103;-72
2023/06/14 03:21:22;;;;;;;14.60;10.30;;;;;;;7.22;76.77;97038.26;105196;1257;96536;-71
2023/06/14 03:23:49;;;;;;;12.00;9.60;;;;;;;7.26;76.87;97036.81;105011;1258;96638;-72
2023/06/14 03:26:17;;;;;;;15.40;10.40;;;;;;;7.30;76.77;97034.86;105228;1255;97351;-71
2023/06/14 03:28:45;;;;;;;14.20;9.90;;;;;;;7.32;76.82;97034.77;105277;1261;96538;-72
2023/06/14 03:31:13;;;;;;;14.90;10.50;;;;;;;7.34;76.72;97036.70;105264;1260;96548;-71
2023/06/14 03:33:40;;;;;;;15.90;10.40;;;;;;;7.35;76.73;97041.87;105310;1264;97350;-72
2023/06/14 03:36:07;;;;;;;12.80;9.50;;;;;;;7.37;76.80;97038.71;105195;1266;96552;-71
2023/06/14 03:38:34;;;;;;;17.80;10.50;;;;;;;7.41;76.68;97038.61;105058;1258;97003;-70
2023/06/14 03:41:01;;;;;;;13.10;9.90;;;;;;;7.45;76.78;97040.26;105184;1264;97460;-71
2023/06/14 03:43:29;;;;;;;16.10;10.80;;;;;;;7.48;76.97;97037.81;105068;1268;96717;-70
2023/06/14 03:45:57;;;;;;;16.40;10.40;;;;;;;7.51;76.97;97038.28;105145;1254;96526;-72
2023/06/14 03:48:23;;;;;;;14.10;10.90;;;;;;;7.57;77.14;97041.87;105308;1259;96980;-71
2023/06/14 03:50:50;;;;;;;18.90;11.20;;;;;;;7.63;77.14;97043.40;105295;1265;97333;-70
2023/06/14 03:53:17;;;;;;;15.90;11.50;;;;;;;7.69;77.11;97045.01;105303;1257;97041;-71
2023/06/14 03:55:44;;;;;;;18.60;11.40;;;;;;;7.74;77.23;97044.05;105078;1254;97496;-71
2023/06/14 03:58:13;;;;;;;15.20;10.70;;;;;;;7.79;77.04;97046.64;104970;1256;183574;-71
2023/06/14 04:00:40;;;;;;;19.70;11.10;;;;;;;7.83;76.84;97045.59;105260;1254;102284;-70
2023/06/14 04:03:06;;;;;;;14.90;10.80;;;;;;;7.86;76.76;97046.41;105135;1254;96605;-70
2023/06/14 04:05:33;;;;;;;18.50;10.20;;;;;;;7.89;76.78;97046.41;105146;1254;96604;-70
2023/06/14 04:08:00;;;;;;;14.90;10.60;;;;;;;7.91;76.83;97044.65;105090;1251;96794;-70
2023/06/14 04:10:27;;;;;;;14.90;10.30;;;;;;;7.95;76.66;97046.16;105210;1254;97824;-70
2023/06/14 04:12:54;;;;;;;14.30;10.40;;;;;;;7.98;76.63;97049.36;105344;1251;96628;-72
2023/06/14 04:15:21;;;;;;;18.60;10.40;;;;;;;7.95;76.75;97052.27;105465;1264;97842;-70
2023/06/14 04:17:48;;;;;;;17.10;9.90;;;;;;;7.92;76.92;97054.38;105255;1254;97867;-71
2023/06/14 04:20:15;;;;;;;17.00;10.10;;;;;;;7.92;76.88;97053.34;105171;1254;96557;-70
2023/06/14 04:22:43;;;;;;;13.90;10.30;;;;;;;7.93;76.99;97053.92;105152;1258;96612;-70
2023/06/14 04:25:09;;;;;;;13.20;9.30;;;;;;;7.98;76.84;97055.11;105147;1274;96912;-69
2023/06/14 04:27:38;;;;;;;13.60;8.60;;;;;;;8.02;76.72;97057.98;105105;1260;96786;-68
2023/06/14 04:30:05;;;;;;;14.20;9.00;;;;;;;8.05;76.64;97060.15;105131;1264;97431;-69
2023/06/14 04:32:38;;;;;;;15.20;9.70;;;;;;;8.09;76.82;97061.52;105133;1254;96764;-69
2023/06/14 04:35:08;;;;;;;;;;;;;;;8.13;76.98;97060.08;104972;1260;102020;-70
2023/06/14 04:37:39;;;;;;;11.90;9.20;;;;;;;8.15;77.05;97057.27;105226;1258;100149;-69
2023/06/14 04:40:07;;;;;;;11.40;8.60;;;;;;;8.15;76.89;97051.86;105125;1251;99699;-70
2023/06/14 04:42:36;;;;;;;12.40;8.90;;;;;;;8.19;76.79;97051.85;104971;1257;97224;-70
2023/06/14 04:45:03;;;;;;;11.30;8.60;;;;;;;8.27;76.93;97054.35;105148;1264;97058;-69
2023/06/14 04:47:30;;;;;;;12.20;8.60;;;;;;;8.35;76.98;97056.73;105163;1254;96778;-69
2023/06/14 04:50:00;;;;;;;10.90;8.80;;;;;;;8.43;76.81;97058.69;105167;1257;97356;-68
2023/06/14 04:52:29;;;;;;;11.70;8.10;;;;;;;8.49;76.66;97055.55;105166;1252;100119;-69
2023/06/14 04:54:56;;;;;;;11.20;8.10;;;;;;;8.58;76.64;97057.79;105378;1254;97889;-69
2023/06/14 04:57:25;;;;;;;12.70;8.20;;;;;;;8.65;76.65;97056.25;105400;1254;96629;-70
2023/06/14 04:59:55;;;;;;;12.90;7.90;;;;;;;8.72;76.60;97057.82;105015;1257;102747;-70
2023/06/14 05:02:25;;;;;;;9.90;8.60;;;;;;;8.80;76.42;97061.91;105230;1254;101930;-70
2023/06/14 05:04:52;;;;;;;13.00;7.90;;;;;;;8.86;76.42;97063.61;105209;1257;100699;-70
2023/06/14 05:07:19;;;;;;;12.40;7.40;;;;;;;8.91;76.64;97062.79;105149;1255;97469;-71
2023/06/14 05:09:46;;;;;;;9.70;7.90;;;;;;;8.97;76.46;97062.23;104802;1258;97655;-69
2023/06/14 05:12:13;;;;;;;10.50;7.60;;;;;;;9.05;76.45;97063.54;105117;1257;97539;-70
2023/06/14 05:14:40;;;;;;;8.90;7.50;;;;;;;9.07;76.33;97060.77;105045;1266;96632;-70
2023/06/14 05:17:07;;;;;;;11.00;8.30;;;;;;;9.13;76.28;97059.34;105189;1255;98398;-70
2023/06/14 05:19:33;;;;;;;12.90;8.90;;;;;;;9.21;76.42;97058.99;105120;1260;98396;-70
2023/06/14 05:22:00;;;;;;;13.90;8.10;;;;;;;9.29;76.41;97057.27;105133;1251;96625;-69
2023/06/14 05:24:28;;;;;;;11.50;8.30;;;;;;;9.38;76.26;97054.05;105224;1265;96501;-69
2023/06/14 05:26:55;;;;;;;10.50;7.90;;;;;;;9.48;76.35;97057.91;105086;1257;97412;-70
2023/06/14 05:29:22;;;;;;;9.50;7.60;;;;;;;9.58;76.20;97059.54;105179;1252;96596;-69
2023/06/14 05:31:49;;;;;;;10.80;8.10;;;;;;;9.67;76.22;97060.69;104938;1257;97067;-71
2023/06/14 05:34:15;;;;;;;10.70;7.80;;;;;;;9.73;76.11;97064.23;105224;1257;97916;-69
2023/06/14 05:36:42;;;;;;;11.20;8.40;;;;;;;9.80;76.20;97066.58;105310;1255;100959;-72
2023/06/14 05:39:10;;;;;;;11.60;8.00;;;;;;;9.86;76.24;97068.79;105116;1251;96562;-70
2023/06/14 05:41:36;;;;;;;12.00;8.60;;;;;;;9.92;76.30;97061.98;105150;1251;97006;-70
2023/06/14 05:44:03;;;;;;;9.90;8.20;;;;;;;9.98;76.33;97059.30;105145;1257;97160;-72
2023/06/14 05:46:30;;;;;;;10.20;8.50;;;;;;;10.07;76.70;97057.42;105105;1253;97384;-72
2023/06/14 05:48:57;;;;;;;10.40;7.90;;;;;;;10.16;76.60;97056.92;105162;1257;97548;-70
2023/06/14 05:51:25;;;;;;;12.60;9.00;;;;;;;10.21;76.31;97061.27;105152;1256;97057;-71
2023/06/14 05:53:51;;;;;;;13.10;8.20;;;;;;;10.27;76.51;97062.84;105276;1264;96551;-70
2023/06/14 05:56:19;;;;;;;10.50;8.40;;;;;;;10.35;76.54;97061.56;105301;1256;97434;-70
2023/06/14 05:58:47;;;;;;;12.00;8.80;;;;;;;10.42;76.26;97061.80;105163;1264;100207;-72
2023/06/14 06:01:14;;;;;;;13.10;8.80;;;;;;;10.49;76.37;97063.16;105279;1250;97157;-71
2023/06/14 06:03:45;;;;;;;13.70;10.80;;;;;;;10.56;76.22;97061.15;105205;1257;97217;-72
2023/06/14 06:06:13;;;;;;;12.90;9.40;;;;;;;10.61;76.12;97060.42;105340;1255;102521;-70
2023/06/14 06:08:40;;;;;;;9.60;8.10;;;;;;;10.67;75.91;97064.38;105149;1255;101000;-70
2023/06/14 06:11:07;;;;;;;10.60;8.20;;;;;;;10.71;75.65;97065.98;105178;1252;97747;-71
2023/06/14 06:13:34;;;;;;;10.80;8.30;;;;;;;10.72;75.63;97065.60;105100;1266;96548;-70
2023/06/14 06:16:03;;;;;;;10.20;8.20;;;;;;;10.79;75.71;97065.91;105074;1257;96782;-70
2023/06/14 06:18:30;;;;;;;13.20;8.50;;;;;;;10.87;75.54;97063.96;105127;1255;97845;-69
2023/06/14 06:20:57;;;;;;;11.80;8.90;;;;;;;10.95;75.32;97067.80;105304;1273;96621;-73
2023/06/14 06:23:23;;;;;;;11.30;8.50;;;;;;;11.03;75.27;97070.52;105051;1255;96580;-70
2023/06/14 06:25:50;;;;;;;12.60;8.60;;;;;;;11.09;75.19;97072.95;105260;1251;97311;-69
2023/06/14 06:28:17;;;;;;;11.60;9.20;;;;;;;11.16;75.05;97073.15;105276;1251;96536;-70
2023/06/14 06:30:44;;;;;;;9.90;8.50;;;;;;;11.25;74.88;97073.41;105212;1257;98047;-72
2023/06/14 06:33:11;;;;;;;12.90;9.50;;;;;;;11.32;74.67;97075.25;104984;1260;100530;-72
2023/06/14 06:35:38;;;;;;;11.50;9.40;;;;;;;11.39;74.39;97078.21;105296;1252;97366;-72
2023/06/14 06:38:05;;;;;;;12.60;9.70;;;;;;;11.43;74.37;97078.83;105150;1251;96562;-71
2023/06/14 06:40:32;;;;;;;12.10;9.40;;;;;;;11.47;74.56;97080.83;105275;1254;96539;-70
2023/06/14 06:42:58;;;;;;;13.90;9.10;;;;;;;11.51;74.47;97082.35;105374;1254;96491;-73
2023/06/14 06:45:25;;;;;;;11.10;9.30;;;;;;;11.56;74.23;97083.55;105252;1265;97428;-71
2023/06/14 06:47:52;;;;;;;13.00;9.50;;;;;;;11.62;74.38;97085.55;105032;1274;96614;-71
2023/06/14 06:50:19;;;;;;;14.30;9.80;;;;;;;11.68;74.62;97088.40;105165;1254;96692;-73
2023/06/14 06:52:46;;;;;;;13.10;9.60;;;;;;;11.75;74.52;97087.66;105150;1251;96459;-69
2023/06/14 06:55:13;;;;;;;14.60;9.90;;;;;;;11.80;74.35;97088.88;105332;1258;96494;-70
2023/06/14 06:57:40;;;;;;;13.80;8.70;;;;;;;11.83;74.17;97093.95;105337;1254;96626;-69
2023/06/14 07:00:09;;;;;;;12.00;9.20;;;;;;;11.88;74.03;97090.61;105338;1270;97871;-71
2023/06/14 07:02:37;;;;;;;12.30;9.40;;;;;;;11.93;73.73;97088.69;105437;1265;101623;-73
2023/06/14 07:05:04;;;;;;;16.80;10.10;;;;;;;11.93;73.84;97091.64;105369;1257;100469;-71
2023/06/14 07:07:31;;;;;;;12.30;9.10;;;;;;;11.95;73.97;97093.08;105108;1254;96482;-72
2023/06/14 07:09:58;;;;;;;14.50;9.20;;;;;;;11.97;73.94;97097.52;105264;1257;96782;-72
2023/06/14 07:12:25;;;;;;;10.80;8.70;;;;;;;11.98;73.86;97097.80;105081;1274;97253;-70
2023/06/14 07:14:52;;;;;;;12.80;9.50;;;;;;;11.99;73.94;97101.95;105228;1254;97842;-72
2023/06/14 07:17:19;;;;;;;14.30;9.50;;;;;;;12.07;74.03;97103.42;105129;1257;96554;-71
2023/06/14 07:19:46;;;;;;;11.20;9.40;;;;;;;12.13;73.86;97103.39;105193;1251;97524;-71
2023/06/14 07:22:12;;;;;;;13.40;9.50;;;;;;;12.18;73.77;97104.98;105177;1255;102903;-71
2023/06/14 07:24:40;;;;;;;10.70;8.90;;;;;;;12.22;73.71;97104.01;105106;1254;97869;-70
2023/06/14 07:27:07;;;;;;;12.70;9.70;;;;;;;12.25;73.74;97105.84;105033;1270;96561;-71
2023/06/14 07:29:34;;;;;;;13.30;9.00;;;;;;;12.29;73.80;97107.89;104973;1268;96725;-73
2023/06/14 07:32:01;;;;;;;13.10;9.80;;;;;;;12.33;73.82;97114.15;105093;1255;97064;-73
2023/06/14 07:34:28;;;;;;;11.10;8.60;;;;;;;12.33;74.01;97116.27;105400;1257;97857;-73
2023/06/14 07:36:55;;;;;;;14.90;9.90;;;;;;;12.29;74.18;97117.89;105175;1251;96615;-70
2023/06/14 07:39:22;;;;;;;12.60;8.80;;;;;;;12.27;74.59;97117.61;104902;1274;97783;-71
2023/06/14 07:41:49;;;;;;;15.10;9.20;;;;;;;12.29;74.84;97115.73;105258;1251;98247;-71
2023/06/14 07:44:16;;;;;;;11.30;8.20;;;;;;;12.29;74.85;97117.63;105200;1251;97456;-72
2023/06/14 07:46:43;;;;;;;10.60;8.40;;;;;;;12.28;74.95;97118.14;105357;1251;97731;-73
2023/06/14 07:49:10;;;;;;;15.10;8.40;;;;;;;12.24;75.03;97119.23;105139;1258;96625;-73
2023/06/14 07:51:37;;;;;;;11.30;8.60;;;;;;;12.25;75.30;97121.84;105080;1251;96883;-71
2023/06/14 07:54:07;;;;;;;10.30;8.80;;;;;;;12.25;75.58;97124.67;105234;1264;97027;-73
2023/06/14 07:56:33;;;;;;;11.50;8.70;;;;;;;12.26;75.77;97126.08;105104;1257;97342;-73
2023/06/14 07:59:00;;;;;;;13.00;8.60;;;;;;;12.28;75.85;97125.67;105134;1253;96634;-70
2023/06/14 08:01:28;;;;;;;12.70;9.10;;;;;;;12.33;76.02;97125.19;105141;1257;96616;-71
2023/06/14 08:03:54;;;;;;;11.10;9.00;;;;;;;12.35;76.19;97121.58;105173;1251;96641;-72
2023/06/14 08:06:22;;;;;;;10.80;8.70;;;;;;;12.37;76.31;97122.06;105113;1254;97455;-71
2023/06/14 08:08:48;;;;;;;12.10;8.90;;;;;;;12.42;76.41;97122.36;105277;1267;97450;-71
2023/06/14 08:11:15;;;;;;;12.50;8.20;;;;;;;12.49;76.43;97120.13;105328;1257;100473;-72
2023/06/14 08:13:42;;;;;;;9.00;7.90;;;;;;;12.58;76.38;97115.09;105103;1258;96580;-72
2023/06/14 08:16:10;;;;;;;9.00;7.70;;;;;;;12.65;76.49;97112.95;104972;1251;97237;-72
2023/06/14 08:18:37;;;;;;;9.10;7.60;;;;;;;12.74;76.69;97116.52;105153;1257;97838;-73
2023/06/14 08:21:04;;;;;;;7.90;7.10;;;;;;;12.83;76.56;97115.24;105150;1256;97881;-72
2023/06/14 08:23:31;;;;;;;9.30;7.50;;;;;;;12.90;76.37;97113.80;104913;1260;96721;-71
2023/06/14 08:25:58;;;;;;;8.60;7.10;;;;;;;12.98;76.18;97117.46;105266;1252;96544;-71
2023/06/14 08:28:25;;;;;;;8.10;6.90;;;;;;;13.03;76.17;97119.71;105320;1257;97448;-72
2023/06/14 08:30:51;;;;;;;9.50;7.00;;;;;;;13.05;76.16;97115.25;105220;1257;102268;-72
2023/06/14 08:33:18;;;;;;;8.20;6.70;;;;;;;13.08;76.11;97117.45;105125;1258;97963;-71
2023/06/14 08:35:45;;;;;;;7.90;6.60;;;;;;;13.12;76.03;97116.23;105116;1251;97447;-72
2023/06/14 08:38:12;;;;;;;7.80;6.60;;;;;;;13.16;76.08;97117.13;105171;1265;96619;-73
2023/06/14 08:40:41;;;;;;;9.70;6.90;;;;;;;13.24;76.00;97121.02;104992;1259;97073;-71
2023/06/14 08:43:08;;;;;;;7.10;6.30;;;;;;;13.32;76.07;97123.70;105254;1273;109361;-72
2023/06/14 08:45:35;;;;;;;10.40;7.00;;;;;;;13.39;75.94;97125.59;104925;1270;96671;-70
2023/06/14 08:48:03;;;;;;;8.50;6.50;;;;;;;13.43;75.78;97125.13;105153;1264;96568;-71
2023/06/14 08:50:32;;;;;;;7.70;5.90;;;;;;;13.46;75.84;97128.25;105284;1251;97841;-71
2023/06/14 08:53:02;;;;;;;5.90;5.10;;;;;;;13.50;75.76;97129.84;105155;1254;101732;-71
2023/06/14 08:55:33;;;;;;;7.50;6.10;;;;;;;13.53;75.84;97132.24;105308;1251;99578;-71
2023/06/14 08:58:01;;;;;;;6.50;5.40;;;;;;;13.59;75.97;97134.08;105146;1251;96542;-71
2023/06/14 09:00:28;;;;;;;5.80;5.10;;;;;;;13.68;75.76;97137.85;105109;1257;97046;-72
2023/06/14 09:02:57;;;;;;;6.40;5.20;;;;;;;13.77;75.73;97138.14;105227;1251;97501;-71
2023/06/14 09:05:26;;;;;;;6.50;5.50;;;;;;;13.83;75.60;97136.41;105351;1257;102038;-71
2023/06/14 09:07:54;;;;;;;7.50;5.40;;;;;;;13.90;75.34;97143.15;105087;1274;100668;-72
2023/06/14 09:10:22;;;;;;;6.40;5.70;;;;;;;13.95;75.35;97145.77;105181;1262;97785;-71
2023/06/14 09:12:49;;;;;;;5.60;4.70;;;;;;;13.98;75.10;97144.42;105303;1251;97922;-70
2023/06/14 09:15:16;;;;;;;5.10;4.60;;;;;;;13.95;74.89;97140.34;105141;1257;96629;-71
2023/06/14 09:17:43;;;;;;;5.70;5.20;;;;;;;13.95;75.15;97140.34;105165;1255;97199;-71
2023/06/14 09:20:13;;;;;;;6.60;5.40;;;;;;;13.98;75.08;97137.20;105121;1256;96573;-70
2023/06/14 09:22:41;;;;;;;8.90;6.60;;;;;;;13.99;75.19;97137.94;105152;1252;97259;-72
2023/06/14 09:25:08;;;;;;;8.90;5.80;;;;;;;13.98;75.31;97137.58;105204;1251;96969;-72
2023/06/14 09:27:35;;;;;;;6.80;5.90;;;;;;;13.99;75.17;97137.45;105208;1265;98386;-71
2023/06/14 09:30:05;;;;;;;8.10;6.40;;;;;;;14.08;75.49;97135.02;105126;1270;97339;-71
2023/06/14 09:32:36;;;;;;;6.70;5.50;;;;;;;14.26;75.64;97134.83;105007;1257;100199;-71
2023/06/14 09:35:04;;;;;;;6.90;4.90;;;;;;;14.63;75.76;97132.36;105083;1259;96622;-70
2023/06/14 09:37:32;;;;;;;5.90;4.70;;;;;;;15.03;75.19;97131.18;105118;1251;97109;-71
2023/06/14 09:39:59;;;;;;;5.10;4.60;;;;;;;15.26;74.99;97126.34;104979;1270;112473;-71
2023/06/14 09:42:28;;;;;;;5.10;4.50;;;;;;;15.40;74.47;97128.70;105191;1266;96537;-74
2023/06/14 09:44:56;;;;;;;5.20;3.80;;;;;;;15.51;73.68;97129.30;105159;1254;100474;-71
2023/06/14 09:47:24;;;;;;;5.60;4.20;;;;;;;15.64;73.53;97127.28;105221;1257;96565;-72
2023/06/14 09:49:54;;;;;;;7.10;3.90;;;;;;;15.76;73.69;97126.98;105275;1257;96974;-73
2023/06/14 09:52:22;;;;;;;4.60;4.00;;;;;;;16.04;73.35;97123.20;105166;1266;102773;-71
2023/06/14 09:54:50;;;;;;;4.20;3.80;;;;;;;16.38;72.95;97122.76;105194;1255;101823;-70
2023/06/14 09:57:22;;;;;;;8.40;7.50;;;;;;;16.65;72.45;97121.92;105145;1257;97878;-73
2023/06/14 09:59:51;;;;;;;;;;;;;;;16.85;72.18;97123.23;105189;1266;97473;-72
2023/06/14 10:02:29;;;;;;;4.40;4.00;;;;;;;17.09;72.16;97124.80;105121;1275;97271;-72
2023/06/14 10:05:05;;;;;;;4.30;3.90;;;;;;;17.67;72.05;97128.98;105239;1254;102634;-73
2023/06/14 10:07:38;;;;;;;4.70;4.20;;;;;;;18.29;71.60;97133.58;105417;1258;101668;-73
2023/06/14 10:10:06;;;;;;;3.50;3.10;;;;;;;18.77;70.35;97132.00;105218;1266;100616;-72
2023/06/14 10:12:33;;;;;;;4.10;3.50;;;;;;;19.17;69.47;97120.75;105182;1251;96788;-72
2023/06/14 10:15:02;;;;;;;3.50;3.20;;;;;;;19.47;68.68;97116.71;104977;1251;96638;-73
2023/06/14 10:17:44;;;;;;;3.10;2.90;;;;;;;19.81;68.11;97113.83;105209;1267;102830;-74
2023/06/14 10:20:27;;;;;;;2.70;2.50;;;;;;;20.21;67.10;97113.21;104973;1260;101683;-73
2023/06/14 10:23:19;;;;;;;2.70;2.50;;;;;;;20.55;65.94;97118.20;105096;1257;100474;-73
2023/06/14 10:25:51;;;;;;;15.20;3.40;;;;;;;20.73;65.15;97112.02;104584;1262;96828;-72
2023/06/14 10:28:20;;;;;;;3.50;3.10;;;;;;;20.71;64.11;97109.00;104830;1258;96709;-72
2023/06/14 10:31:04;;;;;;;3.50;3.20;;;;;;;20.55;63.38;97107.88;104601;1264;101201;-71
2023/06/14 10:33:32;;;;;;;3.20;2.90;;;;;;;20.32;62.76;97109.90;104888;1274;101842;-72
2023/06/14 10:36:32;;;;;;;2.60;2.40;;;;;;;20.15;62.42;97110.99;104763;1265;100159;-73
2023/06/14 10:39:05;;;;;;;4.40;3.10;;;;;;;20.04;62.11;97113.29;104790;1263;97126;-73
2023/06/14 10:41:36;;;;;;;3.30;2.90;;;;;;;20.20;62.52;97109.48;104569;1279;97374;-72
2023/06/14 10:44:15;;;;;;;2.70;2.50;;;;;;;20.41;62.24;97099.83;104499;1265;102609;-74
2023/06/14 10:46:54;;;;;;;3.40;3.10;;;;;;;20.72;62.28;97098.58;104421;1267;101918;-72
2023/06/14 10:49:38;;;;;;;5.80;4.20;;;;;;;21.03;61.42;97094.74;104573;1270;100210;-73
2023/06/14 10:52:06;;;;;;;11.70;7.20;;;;;;;21.05;60.77;97091.88;104724;1275;97723;-73
2023/06/14 10:54:33;;;;;;;5.20;4.20;;;;;;;20.90;60.86;97091.71;104611;1262;97969;-74
2023/06/14 10:57:07;;;;;;;6.40;4.40;;;;;;;20.90;60.57;97088.52;104720;1257;96671;-75
2023/06/14 10:59:34;;;;;;;4.20;3.80;;;;;;;20.97;60.58;97082.21;104608;1275;101692;-73
2023/06/14 11:02:19;;;;;;;5.60;3.70;;;;;;;21.26;60.42;97080.54;104569;1263;96712;-73
2023/06/14 11:04:52;;;;;;;4.20;3.70;;;;;;;21.64;60.03;97074.31;105092;1251;96543;-73
2023/06/14 11:07:43;;;;;;;4.10;3.70;;;;;;;21.92;59.67;97076.27;105038;1260;97550;-73
2023/06/14 11:10:28;;;;;;;4.30;3.90;;;;;;;22.13;59.40;97075.23;105127;1254;102995;-73
2023/06/14 11:12:55;;;;;;;4.40;3.70;;;;;;;22.19;58.50;97079.33;105115;1257;101891;-76
2023/06/14 11:15:30;;;;;;;3.30;3.00;;;;;;;22.40;57.82;97077.08;104925;1257;96622;-73
2023/06/14 11:17:57;;;;;;;3.10;2.90;;;;;;;22.60;57.34;97074.11;105378;1257;96603;-72
2023/06/14 11:20:30;;;;;;;3.70;2.90;;;;;;;22.70;56.81;97075.32;105429;1256;96955;-73
2023/06/14 11:22:57;;;;;;;3.00;2.80;;;;;;;22.94;56.24;97072.79;105099;1264;102782;-70
2023/06/14 11:25:26;;;;;;;3.20;2.90;;;;;;;23.17;55.64;97070.31;105148;1254;97734;-72
2023/06/14 11:27:53;;;;;;;2.90;2.70;;;;;;;23.33;54.59;97064.98;105252;1256;100231;-75